createdAt,value
2018-10-18T12:36:27.661Z,72.10
2018-10-18T12:39:05.123Z,72.20
2018-10-18T12:41:40.639Z,71.90
2018-10-18T12:44:16.888Z,72.00
2018-10-18T12:46:53.959Z,71.80
2018-10-18T12:49:32.092Z,71.50
2018-10-18T12:52:07.694Z,71.00
2018-10-18T12:54:45.157Z,70.80
2018-10-18T12:57:20.420Z,71.50
2018-10-18T12:59:56.533Z,71.00
2018-10-18T13:02:31.791Z,71.20
2018-10-18T13:05:08.594Z,71.50
2018-10-18T13:07:45.127Z,70.90
2018-10-18T13:10:19.686Z,71.20
2018-10-18T13:12:56.124Z,70.70
2018-10-18T13:15:36.716Z,70.70
2018-10-18T13:18:14.724Z,70.40
2018-10-18T13:20:50.674Z,70.50
2018-10-18T13:23:27.143Z,70.70
2018-10-18T13:26:07.711Z,70.30
2018-10-18T13:28:48.141Z,70.50
2018-10-18T13:31:22.689Z,70.90
2018-10-18T13:33:58.778Z,70.40
2018-10-18T13:36:34.803Z,71.10
2018-10-18T13:39:13.841Z,70.30
2018-10-18T13:41:51.419Z,70.50
2018-10-18T13:44:28.710Z,70.80
2018-10-18T13:47:04.973Z,71.00
2018-10-18T13:49:40.617Z,71.50
2018-10-18T13:52:17.701Z,71.70
2018-10-18T13:54:53.759Z,71.30
2018-10-18T13:57:32.884Z,72.00
2018-10-18T14:00:33.728Z,71.70
2018-10-18T14:03:11.628Z,71.70
2018-10-18T14:05:47.762Z,71.60
2018-10-18T14:08:23.625Z,72.40
2018-10-18T14:11:01.713Z,72.20
2018-10-18T14:13:36.680Z,72.20
2018-10-18T14:16:14.786Z,71.80
2018-10-18T14:18:48.586Z,71.80
2018-10-18T14:21:46.767Z,72.70
2018-10-18T14:24:22.612Z,72.30
2018-10-18T14:27:01.541Z,72.00
2018-10-18T14:29:39.028Z,71.40
2018-10-18T14:32:14.753Z,71.80
2018-10-18T14:34:57.708Z,71.90
2018-10-18T14:37:32.734Z,71.90
2018-10-18T14:40:07.770Z,71.90
2018-10-18T14:42:44.648Z,72.70
2018-10-18T14:45:21.748Z,73.00
2018-10-18T14:48:01.677Z,72.70
2018-10-18T14:50:36.830Z,72.60
2018-10-18T14:53:11.849Z,72.70
2018-10-18T14:55:54.814Z,72.30
2018-10-18T14:58:32.659Z,72.60
2018-10-18T15:01:07.702Z,73.20
2018-10-18T15:03:43.958Z,73.60
2018-10-18T15:06:37.024Z,73.40
2018-10-18T15:09:14.094Z,73.00
2018-10-18T15:11:49.947Z,73.20
2018-10-18T15:14:29.690Z,73.40
2018-10-18T15:17:06.646Z,73.40
2018-10-18T15:19:42.624Z,73.60
2018-10-18T15:22:19.191Z,73.00
2018-10-18T15:24:54.738Z,73.60
2018-10-18T15:27:32.088Z,73.70
2018-10-18T15:30:08.494Z,73.90
2018-10-18T15:32:44.182Z,74.40
2018-10-18T15:35:19.790Z,74.40
2018-10-18T15:37:54.908Z,75.00
2018-10-18T15:40:30.228Z,75.10
2018-10-18T15:43:06.731Z,75.30
2018-10-18T15:45:43.815Z,74.80
2018-10-18T15:48:20.689Z,74.90
2018-10-18T15:50:56.384Z,74.80
2018-10-18T15:53:32.809Z,75.10
2018-10-18T15:56:07.841Z,75.90
2018-10-18T16:01:35.933Z,76.10
2018-10-18T16:04:13.014Z,75.60
2018-10-18T16:06:48.866Z,76.60
2018-10-18T16:09:25.947Z,77.00
2018-10-18T16:12:08.768Z,77.50
2018-10-18T16:14:45.021Z,77.20
2018-10-18T16:17:21.091Z,77.50
2018-10-18T16:19:58.178Z,77.60
2018-10-18T16:22:32.786Z,77.70
2018-10-18T16:25:09.871Z,78.00
2018-10-18T16:27:45.923Z,78.30
2018-10-18T16:30:22.804Z,78.50
2018-10-18T16:32:57.839Z,78.80
2018-10-18T16:35:34.915Z,79.10
2018-10-18T16:38:13.865Z,79.10
2018-10-18T16:40:51.178Z,79.00
2018-10-18T16:43:32.330Z,78.40
2018-10-18T16:46:07.962Z,77.90
2018-10-18T16:48:44.627Z,78.10
2018-10-18T16:51:24.216Z,78.30
2018-10-18T16:54:02.997Z,78.60
2018-10-18T16:56:38.944Z,78.80
2018-10-18T16:59:15.201Z,78.20
2018-10-18T17:01:49.825Z,78.40
2018-10-18T17:04:25.044Z,77.90
2018-10-18T17:07:02.969Z,77.80
2018-10-18T17:09:40.866Z,77.60
2018-10-18T17:12:17.039Z,77.80
2018-10-18T17:14:51.960Z,77.90
2018-10-18T17:17:30.467Z,77.90
2018-10-18T17:20:13.240Z,77.40
2018-10-18T17:22:55.900Z,77.30
2018-10-18T17:25:30.934Z,76.90
2018-10-18T17:28:06.993Z,76.90
2018-10-18T17:30:51.241Z,76.90
2018-10-18T17:42:07.439Z,77.50
2018-10-18T17:44:42.931Z,77.80
2018-10-18T17:53:07.007Z,77.60
2018-10-18T18:04:20.943Z,78.10
2018-10-18T18:09:51.917Z,78.20
2018-10-18T18:12:29.806Z,78.00
2018-10-18T18:15:05.860Z,77.90
2018-10-18T18:17:46.831Z,78.00
2018-10-18T18:29:05.746Z,77.80
2018-10-18T18:31:54.909Z,77.90
2018-10-18T18:43:12.413Z,79.20
2018-10-18T18:45:50.901Z,79.50
2018-10-18T19:11:32.839Z,78.90
2018-10-18T19:31:34.401Z,78.90
2018-10-18T19:34:17.424Z,79.00
2018-10-18T19:54:20.008Z,79.10
2018-10-18T19:57:05.077Z,79.50
2018-10-18T19:59:43.999Z,79.80
2018-10-18T20:02:23.129Z,80.20
2018-10-18T20:05:01.439Z,80.00
2018-10-18T20:07:40.990Z,80.10
2018-10-18T20:27:33.118Z,80.70
2018-10-18T20:30:10.057Z,80.40
2018-10-18T20:53:00.158Z,81.40
2018-10-18T20:55:36.491Z,81.30
2018-10-18T20:58:12.838Z,81.50
2018-10-18T21:00:49.713Z,81.70
2018-10-18T21:03:27.819Z,81.70
2018-10-18T21:23:23.029Z,82.20
2018-10-18T21:25:59.524Z,82.30
2018-10-18T21:45:52.666Z,82.10
2018-10-18T21:48:28.924Z,82.20
2018-10-18T21:51:05.007Z,82.30
2018-10-18T21:53:41.855Z,82.30
2018-10-18T22:13:36.865Z,82.80
2018-10-18T22:16:12.925Z,82.90
2018-10-18T22:36:07.110Z,83.60
2018-10-18T22:38:41.123Z,83.80
2018-10-18T22:41:16.572Z,83.80
2018-10-18T22:43:54.466Z,83.60
2018-10-18T23:03:47.021Z,84.30
2018-10-18T23:06:22.049Z,84.30
2018-10-18T23:26:17.876Z,85.20
2018-10-18T23:28:53.116Z,85.30
2018-10-18T23:48:48.118Z,85.60
2018-10-18T23:51:23.154Z,85.80
